createdAt,value
2017-02-13T00:00:48.301Z,1032.77
2017-02-13T00:01:59.032Z,1032.76
2017-02-13T00:03:08.818Z,1032.73
2017-02-13T00:04:18.741Z,1032.75
2017-02-13T00:05:28.705Z,1032.76
2017-02-13T00:06:38.224Z,1032.76
2017-02-13T00:07:48.549Z,1032.78
2017-02-13T00:08:58.728Z,1032.78
2017-02-13T00:10:08.663Z,1032.73
2017-02-13T00:11:18.184Z,1032.73
2017-02-13T00:12:28.107Z,1032.7
2017-02-13T00:13:38.426Z,1032.75
2017-02-13T00:14:49.014Z,1032.76
2017-02-13T00:15:59.750Z,1032.76
2017-02-13T00:17:10.472Z,1032.8
2017-02-13T00:18:20.802Z,1032.76
2017-02-13T00:19:30.749Z,1032.74
2017-02-13T00:20:40.577Z,1032.79
2017-02-13T00:21:50.516Z,1032.77
2017-02-13T00:23:00.837Z,1032.73
2017-02-13T00:24:10.780Z,1032.75
2017-02-13T00:25:20.311Z,1032.74
2017-02-13T00:26:30.489Z,1032.76
2017-02-13T00:27:40.834Z,1032.73
2017-02-13T00:28:51.544Z,1032.75
2017-02-13T00:30:01.101Z,1032.75
2017-02-13T00:31:11.813Z,1032.73
2017-02-13T00:32:22.423Z,1032.77
2017-02-13T00:33:32.326Z,1032.8
2017-02-13T00:34:41.865Z,1032.74
2017-02-13T00:35:52.181Z,1032.8
2017-02-13T00:37:01.720Z,1032.81
2017-02-13T00:38:11.895Z,1032.81
2017-02-13T00:39:21.054Z,1032.8
2017-02-13T00:40:30.579Z,1032.86
2017-02-13T00:41:40.487Z,1032.88
2017-02-13T00:42:49.639Z,1032.92
2017-02-13T00:43:59.452Z,1032.95
2017-02-13T00:45:10.164Z,1033
2017-02-13T00:46:20.892Z,1033
2017-02-13T00:47:31.217Z,1033.01
2017-02-13T00:48:41.556Z,1033.08
2017-02-13T00:49:51.727Z,1033.07
2017-02-13T00:51:01.643Z,1033.07
2017-02-13T00:52:11.951Z,1033.11
2017-02-13T00:53:21.882Z,1033.13
2017-02-13T00:54:32.600Z,1033.12
2017-02-13T00:55:43.184Z,1033.09
2017-02-13T00:56:54.129Z,1033.09
2017-02-13T00:58:04.062Z,1033.05
2017-02-13T00:59:13.976Z,1033.04
2017-02-13T01:00:24.276Z,1033.07
2017-02-13T01:01:34.898Z,1033.05
2017-02-13T01:02:44.425Z,1033.08
2017-02-13T01:03:53.963Z,1033.17
2017-02-13T01:05:04.672Z,1033.13
2017-02-13T01:06:14.984Z,1033.16
2017-02-13T01:07:25.179Z,1033.15
2017-02-13T01:08:35.505Z,1033.11
2017-02-13T01:09:44.266Z,1033.12
2017-02-13T01:10:53.814Z,1033.18
2017-02-13T01:12:04.131Z,1033.2
2017-02-13T01:13:14.327Z,1033.19
2017-02-13T01:14:24.645Z,1033.19
2017-02-13T01:15:34.182Z,1033.17
2017-02-13T01:16:44.094Z,1033.2
2017-02-13T01:17:54.050Z,1033.19
2017-02-13T01:19:05.029Z,1033.2
2017-02-13T01:20:15.371Z,1033.21
2017-02-13T01:21:25.406Z,1033.17
2017-02-13T01:22:35.330Z,1033.22
2017-02-13T01:23:45.257Z,1033.23
2017-02-13T01:24:55.446Z,1033.27
2017-02-13T01:26:05.367Z,1033.3
2017-02-13T01:27:15.310Z,1033.33
2017-02-13T01:28:26.021Z,1033.34
2017-02-13T01:29:35.980Z,1033.35
2017-02-13T01:30:45.367Z,1033.37
2017-02-13T01:31:56.069Z,1033.34
2017-02-13T01:33:06.396Z,1033.34
2017-02-13T01:34:15.938Z,1033.34
2017-02-13T01:35:26.655Z,1033.33
2017-02-13T01:36:36.434Z,1033.31
2017-02-13T01:37:45.966Z,1033.3
2017-02-13T01:38:55.127Z,1033.32
2017-02-13T01:40:05.049Z,1033.32
2017-02-13T01:41:14.614Z,1033.26
2017-02-13T01:42:25.240Z,1033.26
2017-02-13T01:43:35.183Z,1033.27
2017-02-13T01:44:45.513Z,1033.26
2017-02-13T01:45:55.438Z,1033.27
2017-02-13T01:47:05.360Z,1033.25
2017-02-13T01:48:15.572Z,1033.3
2017-02-13T01:49:24.701Z,1033.28
2017-02-13T01:50:34.318Z,1033.27
2017-02-13T01:51:44.234Z,1033.29
2017-02-13T01:52:54.200Z,1033.26
2017-02-13T01:54:04.771Z,1033.26
2017-02-13T01:55:14.677Z,1033.23
2017-02-13T01:56:24.588Z,1033.26
2017-02-13T01:57:34.708Z,1033.25
2017-02-13T01:58:45.434Z,1033.26
2017-02-13T01:59:56.054Z,1033.28
2017-02-13T02:01:05.593Z,1033.28
2017-02-13T02:02:16.317Z,1033.22
2017-02-13T02:03:25.891Z,1033.2
2017-02-13T02:04:35.451Z,1033.21
2017-02-13T02:05:46.923Z,1033.22
2017-02-13T02:06:56.466Z,1033.23
2017-02-13T02:08:07.184Z,1033.27
2017-02-13T02:09:17.087Z,1033.19
2017-02-13T02:10:26.606Z,1033.22
2017-02-13T02:11:36.389Z,1033.2
2017-02-13T02:12:46.348Z,1033.19
2017-02-13T02:13:57.056Z,1033.19
2017-02-13T02:15:07.376Z,1033.18
2017-02-13T02:16:18.085Z,1033.18
2017-02-13T02:17:28.263Z,1033.23
2017-02-13T02:18:38.579Z,1033.2
2017-02-13T02:19:48.508Z,1033.18
2017-02-13T02:20:58.051Z,1033.23
2017-02-13T02:22:07.648Z,1033.26
2017-02-13T02:23:18.216Z,1033.26
2017-02-13T02:24:28.938Z,1033.24
2017-02-13T02:25:39.272Z,1033.22
2017-02-13T02:26:48.826Z,1033.24
2017-02-13T02:27:59.140Z,1033.29
2017-02-13T02:29:10.147Z,1033.29
2017-02-13T02:30:20.454Z,1033.27
2017-02-13T02:31:30.772Z,1033.34
2017-02-13T02:32:40.680Z,1033.3
2017-02-13T02:33:50.998Z,1033.3
2017-02-13T02:35:01.243Z,1033.28
2017-02-13T02:36:11.557Z,1033.3
2017-02-13T02:37:21.485Z,1033.25
2017-02-13T02:38:32.196Z,1033.24
2017-02-13T02:39:42.128Z,1033.21
2017-02-13T02:40:52.366Z,1033.22
2017-02-13T02:42:02.694Z,1033.23
2017-02-13T02:43:12.998Z,1033.24
2017-02-13T02:44:23.321Z,1033.25
2017-02-13T02:45:33.659Z,1033.25
2017-02-13T02:46:44.220Z,1033.25
2017-02-13T02:47:54.156Z,1033.25
2017-02-13T02:49:04.480Z,1033.3
2017-02-13T02:50:14.793Z,1033.27
2017-02-13T02:51:24.376Z,1033.34
2017-02-13T02:52:35.331Z,1033.36
2017-02-13T02:53:45.699Z,1033.35
2017-02-13T02:54:55.625Z,1033.37
2017-02-13T02:56:06.339Z,1033.34
2017-02-13T02:57:16.281Z,1033.38
2017-02-13T02:58:26.908Z,1033.38
2017-02-13T02:59:37.631Z,1033.4
2017-02-13T03:00:47.553Z,1033.38
2017-02-13T03:01:57.098Z,1033.36
2017-02-13T03:03:07.795Z,1033.39
2017-02-13T03:04:18.383Z,1033.35
2017-02-13T03:05:27.538Z,1033.35
2017-02-13T03:06:37.939Z,1033.37
2017-02-13T03:07:48.277Z,1033.37
2017-02-13T03:08:58.198Z,1033.35
2017-02-13T03:10:09.203Z,1033.34
2017-02-13T03:11:19.520Z,1033.33
2017-02-13T03:12:29.835Z,1033.36
2017-02-13T03:13:39.769Z,1033.36
2017-02-13T03:14:50.484Z,1033.34
2017-02-13T03:16:01.097Z,1033.34
2017-02-13T03:17:11.000Z,1033.31
2017-02-13T03:18:21.406Z,1033.32
2017-02-13T03:19:31.329Z,1033.35
2017-02-13T03:20:41.677Z,1033.37
2017-02-13T03:21:51.489Z,1033.34
2017-02-13T03:23:02.198Z,1033.29
2017-02-13T03:24:12.536Z,1033.34
2017-02-13T03:25:22.461Z,1033.36
2017-02-13T03:26:33.172Z,1033.34
2017-02-13T03:27:42.994Z,1033.33
2017-02-13T03:28:53.305Z,1033.33
2017-02-13T03:30:03.249Z,1033.28
2017-02-13T03:31:12.784Z,1033.29
2017-02-13T03:32:22.311Z,1033.28
2017-02-13T03:33:32.486Z,1033.27
2017-02-13T03:34:42.007Z,1033.28
2017-02-13T03:35:51.912Z,1033.23
2017-02-13T03:37:01.825Z,1033.23
2017-02-13T03:38:11.780Z,1033.24
2017-02-13T03:39:22.790Z,1033.18
2017-02-13T03:40:33.117Z,1033.15
2017-02-13T03:41:43.444Z,1033.21
2017-02-13T03:42:53.360Z,1033.21
2017-02-13T03:44:03.272Z,1033.21
2017-02-13T03:45:13.058Z,1033.26
2017-02-13T03:46:22.597Z,1033.28
2017-02-13T03:47:32.915Z,1033.29
2017-02-13T03:48:42.073Z,1033.27
2017-02-13T03:49:52.802Z,1033.27
2017-02-13T03:51:03.363Z,1033.27
2017-02-13T03:52:13.674Z,1033.25
2017-02-13T03:53:23.216Z,1033.27
2017-02-13T03:54:33.141Z,1033.28
2017-02-13T03:55:43.873Z,1033.27
2017-02-13T03:56:54.837Z,1033.22
2017-02-13T03:58:04.774Z,1033.28
2017-02-13T03:59:14.694Z,1033.27
2017-02-13T04:00:25.014Z,1033.25
2017-02-13T04:01:34.539Z,1033.29
2017-02-13T04:02:44.733Z,1033.23
2017-02-13T04:03:54.660Z,1033.25
2017-02-13T04:05:04.603Z,1033.22
2017-02-13T04:06:14.119Z,1033.23
2017-02-13T04:07:24.077Z,1033.23
2017-02-13T04:08:34.263Z,1033.25
2017-02-13T04:09:44.585Z,1033.27
2017-02-13T04:10:53.721Z,1033.29
2017-02-13T04:12:04.044Z,1033.22
2017-02-13T04:13:13.581Z,1033.26
2017-02-13T04:14:23.353Z,1033.26
2017-02-13T04:15:32.868Z,1033.23
2017-02-13T04:16:42.800Z,1033.2
2017-02-13T04:17:51.930Z,1033.17
2017-02-13T04:19:01.840Z,1033.17
2017-02-13T04:20:12.007Z,1033.15
2017-02-13T04:21:22.720Z,1033.09
2017-02-13T04:22:32.634Z,1033.1
2017-02-13T04:23:42.948Z,1033.06
2017-02-13T04:24:53.246Z,1033.06
2017-02-13T04:26:03.877Z,1033.13
2017-02-13T04:27:14.221Z,1033.16
2017-02-13T04:28:24.520Z,1033.19
2017-02-13T04:29:34.037Z,1033.16
2017-02-13T04:30:43.953Z,1033.18
2017-02-13T04:31:54.919Z,1033.19
2017-02-13T04:33:05.650Z,1033.21
2017-02-13T04:34:15.561Z,1033.19
2017-02-13T04:35:25.497Z,1033.21
2017-02-13T04:36:35.018Z,1033.23
2017-02-13T04:37:45.261Z,1033.24
2017-02-13T04:38:55.573Z,1033.23
2017-02-13T04:40:05.507Z,1033.26
2017-02-13T04:41:15.847Z,1033.31
2017-02-13T04:42:26.570Z,1033.33
2017-02-13T04:43:36.738Z,1033.33
2017-02-13T04:44:46.262Z,1033.34
2017-02-13T04:45:56.590Z,1033.34
2017-02-13T04:47:06.896Z,1033.35
2017-02-13T04:48:17.219Z,1033.35
2017-02-13T04:49:27.397Z,1033.35
2017-02-13T04:50:37.714Z,1033.39
2017-02-13T04:51:47.633Z,1033.36
2017-02-13T04:52:57.880Z,1033.43
2017-02-13T04:54:08.614Z,1033.42
2017-02-13T04:55:18.778Z,1033.42
2017-02-13T04:56:28.693Z,1033.48
2017-02-13T04:57:38.634Z,1033.45
2017-02-13T04:58:49.244Z,1033.46
2017-02-13T04:59:59.175Z,1033.45
2017-02-13T05:01:09.387Z,1033.46
2017-02-13T05:02:20.090Z,1033.53
2017-02-13T05:03:29.646Z,1033.51
2017-02-13T05:04:39.182Z,1033.5
2017-02-13T05:05:49.103Z,1033.54
2017-02-13T05:06:59.717Z,1033.56
2017-02-13T05:08:09.668Z,1033.52
2017-02-13T05:09:19.599Z,1033.52
2017-02-13T05:10:30.294Z,1033.54
2017-02-13T05:11:39.823Z,1033.51
2017-02-13T05:12:50.016Z,1033.46
2017-02-13T05:13:59.946Z,1033.5
2017-02-13T05:15:09.537Z,1033.5
2017-02-13T05:16:19.844Z,1033.51
2017-02-13T05:17:29.759Z,1033.5
2017-02-13T05:18:40.399Z,1033.51
2017-02-13T05:19:50.336Z,1033.56
2017-02-13T05:20:59.482Z,1033.5
2017-02-13T05:22:09.820Z,1033.45
2017-02-13T05:23:19.758Z,1033.46
2017-02-13T05:24:29.933Z,1033.49
2017-02-13T05:25:39.853Z,1033.44
2017-02-13T05:26:50.556Z,1033.44
2017-02-13T05:28:00.873Z,1033.44
2017-02-13T05:29:11.185Z,1033.45
2017-02-13T05:30:22.143Z,1033.43
2017-02-13T05:31:32.089Z,1033.48
2017-02-13T05:32:42.402Z,1033.49
2017-02-13T05:33:52.319Z,1033.48
2017-02-13T05:35:02.628Z,1033.5
2017-02-13T05:36:12.463Z,1033.54
2017-02-13T05:37:23.175Z,1033.54
2017-02-13T05:38:33.507Z,1033.54
2017-02-13T05:39:43.035Z,1033.52
2017-02-13T05:40:53.747Z,1033.52
2017-02-13T05:42:04.319Z,1033.57
2017-02-13T05:43:15.035Z,1033.57
2017-02-13T05:44:25.383Z,1033.59
2017-02-13T05:45:35.321Z,1033.59
2017-02-13T05:46:45.645Z,1033.62
2017-02-13T05:47:56.251Z,1033.6
2017-02-13T05:49:06.618Z,1033.63
2017-02-13T05:50:16.552Z,1033.64
2017-02-13T05:51:26.868Z,1033.69
2017-02-13T05:52:36.388Z,1033.68
2017-02-13T05:53:46.561Z,1033.66
2017-02-13T05:54:57.284Z,1033.66
2017-02-13T05:56:06.418Z,1033.62
2017-02-13T05:57:16.739Z,1033.67
2017-02-13T05:58:27.045Z,1033.6
2017-02-13T05:59:37.670Z,1033.62
2017-02-13T06:00:47.985Z,1033.62
2017-02-13T06:01:58.309Z,1033.61
2017-02-13T06:03:08.625Z,1033.61
2017-02-13T06:04:19.354Z,1033.6
2017-02-13T06:05:30.315Z,1033.55
2017-02-13T06:06:40.244Z,1033.58
2017-02-13T06:07:50.546Z,1033.6
2017-02-13T06:09:00.461Z,1033.59
2017-02-13T06:10:10.764Z,1033.63
2017-02-13T06:11:20.930Z,1033.58
2017-02-13T06:12:30.885Z,1033.62
2017-02-13T06:13:41.217Z,1033.6
2017-02-13T06:14:51.957Z,1033.55
2017-02-13T06:16:01.904Z,1033.55
2017-02-13T06:17:12.503Z,1033.51
2017-02-13T06:18:22.419Z,1033.5
2017-02-13T06:19:32.721Z,1033.49
2017-02-13T06:20:43.044Z,1033.53
2017-02-13T06:21:53.376Z,1033.55
2017-02-13T06:23:03.158Z,1033.54
2017-02-13T06:24:13.082Z,1033.54
2017-02-13T06:25:23.784Z,1033.56
2017-02-13T06:26:33.720Z,1033.51
2017-02-13T06:27:44.027Z,1033.53
2017-02-13T06:28:54.255Z,1033.51
2017-02-13T06:30:04.596Z,1033.5
2017-02-13T06:31:14.509Z,1033.46
2017-02-13T06:32:24.438Z,1033.53
2017-02-13T06:33:34.466Z,1033.47
2017-02-13T06:34:45.442Z,1033.55
2017-02-13T06:35:55.000Z,1033.52
2017-02-13T06:37:04.920Z,1033.48
2017-02-13T06:38:14.845Z,1033.51
2017-02-13T06:39:25.223Z,1033.56
2017-02-13T06:40:35.844Z,1033.52
2017-02-13T06:41:46.571Z,1033.54
2017-02-13T06:42:56.918Z,1033.57
2017-02-13T06:44:06.849Z,1033.57
2017-02-13T06:45:16.773Z,1033.62
2017-02-13T06:46:27.756Z,1033.55
2017-02-13T06:47:37.681Z,1033.56
2017-02-13T06:48:48.026Z,1033.54
2017-02-13T06:49:58.354Z,1033.56
2017-02-13T06:51:08.673Z,1033.57
2017-02-13T06:52:18.879Z,1033.61
2017-02-13T06:53:29.204Z,1033.56
2017-02-13T06:54:39.539Z,1033.59
2017-02-13T06:55:49.881Z,1033.58
2017-02-13T06:57:00.238Z,1033.62
2017-02-13T06:58:10.060Z,1033.59
2017-02-13T06:59:20.381Z,1033.59
2017-02-13T07:00:31.096Z,1033.64
2017-02-13T07:01:41.460Z,1033.65
2017-02-13T07:02:51.787Z,1033.57
2017-02-13T07:04:02.015Z,1033.65
2017-02-13T07:05:12.323Z,1033.62
2017-02-13T07:06:22.648Z,1033.62
2017-02-13T07:07:33.349Z,1033.65
2017-02-13T07:08:43.660Z,1033.66
2017-02-13T07:09:54.673Z,1033.68
2017-02-13T07:11:05.062Z,1033.69
2017-02-13T07:12:14.984Z,1033.67
2017-02-13T07:13:25.336Z,1033.68
2017-02-13T07:14:35.297Z,1033.69
2017-02-13T07:15:45.481Z,1033.69
2017-02-13T07:16:55.857Z,1033.69
2017-02-13T07:18:05.805Z,1033.65
2017-02-13T07:19:16.160Z,1033.72
2017-02-13T07:20:26.500Z,1033.68
2017-02-13T07:21:37.117Z,1033.71
2017-02-13T07:22:47.873Z,1033.72
2017-02-13T07:23:58.219Z,1033.72
2017-02-13T07:25:08.572Z,1033.73
2017-02-13T07:26:19.294Z,1033.75
2017-02-13T07:27:29.901Z,1033.71
2017-02-13T07:28:39.838Z,1033.78
2017-02-13T07:29:49.774Z,1033.76
2017-02-13T07:30:59.709Z,1033.81
2017-02-13T07:32:09.268Z,1033.78
2017-02-13T07:33:19.438Z,1033.78
2017-02-13T07:34:28.232Z,1033.76
2017-02-13T07:35:38.553Z,1033.82
2017-02-13T07:36:48.880Z,1033.82
2017-02-13T07:37:59.214Z,1033.8
2017-02-13T07:39:09.947Z,1033.78
2017-02-13T07:40:20.668Z,1033.75
2017-02-13T07:41:31.015Z,1033.7
2017-02-13T07:42:41.019Z,1033.71
2017-02-13T07:43:51.647Z,1033.73
2017-02-13T07:45:01.972Z,1033.76
2017-02-13T07:46:12.293Z,1033.75
2017-02-13T07:47:22.642Z,1033.8
2017-02-13T07:48:33.172Z,1033.81
2017-02-13T07:49:43.506Z,1033.8
2017-02-13T07:50:53.445Z,1033.79
2017-02-13T07:52:03.419Z,1033.82
2017-02-13T07:53:13.413Z,1033.82
2017-02-13T07:54:24.011Z,1033.8
2017-02-13T07:55:33.573Z,1033.77
2017-02-13T07:56:43.894Z,1033.78
2017-02-13T07:57:53.846Z,1033.81
2017-02-13T07:59:04.216Z,1033.77
2017-02-13T08:00:15.213Z,1033.82
2017-02-13T08:01:25.615Z,1033.76
2017-02-13T08:02:35.947Z,1033.77
2017-02-13T08:03:46.274Z,1033.73
2017-02-13T08:04:56.596Z,1033.71
2017-02-13T08:06:07.644Z,1033.74
2017-02-13T08:07:18.022Z,1033.76
2017-02-13T08:08:27.559Z,1033.75
2017-02-13T08:09:37.481Z,1033.73
2017-02-13T08:10:47.811Z,1033.75
2017-02-13T08:11:58.394Z,1033.7
2017-02-13T08:13:08.713Z,1033.68
2017-02-13T08:14:19.556Z,1033.64
2017-02-13T08:15:29.894Z,1033.63
2017-02-13T08:16:40.646Z,1033.68
2017-02-13T08:17:51.242Z,1033.62
2017-02-13T08:19:01.588Z,1033.67
2017-02-13T08:20:11.935Z,1033.66
2017-02-13T08:21:22.244Z,1033.68
2017-02-13T08:22:32.569Z,1033.73
2017-02-13T08:23:43.216Z,1033.74
2017-02-13T08:24:53.921Z,1033.76
2017-02-13T08:26:02.723Z,1033.75
2017-02-13T08:27:13.063Z,1033.75
2017-02-13T08:28:23.399Z,1033.76
2017-02-13T08:29:34.012Z,1033.74
2017-02-13T08:30:43.596Z,1033.74
2017-02-13T08:31:53.966Z,1033.74
2017-02-13T08:33:04.733Z,1033.79
2017-02-13T08:34:15.463Z,1033.79
2017-02-13T08:35:25.644Z,1033.82
2017-02-13T08:36:35.579Z,1033.8
2017-02-13T08:37:45.527Z,1033.84
2017-02-13T08:38:55.479Z,1033.79
2017-02-13T08:40:05.822Z,1033.79
2017-02-13T08:41:16.818Z,1033.82
2017-02-13T08:42:27.568Z,1033.81
2017-02-13T08:43:37.108Z,1033.87
2017-02-13T08:44:47.465Z,1033.92
2017-02-13T08:45:58.212Z,1033.89
2017-02-13T08:47:09.204Z,1033.95
2017-02-13T08:48:19.572Z,1033.97
2017-02-13T08:49:29.510Z,1034
2017-02-13T08:50:40.227Z,1034
2017-02-13T08:51:50.974Z,1034
2017-02-13T08:53:01.590Z,1034.03
2017-02-13T08:54:11.927Z,1034.02
2017-02-13T08:55:22.748Z,1034.06
2017-02-13T08:56:33.112Z,1034.08
2017-02-13T08:57:43.854Z,1034.09
2017-02-13T08:58:53.774Z,1034.13
2017-02-13T09:00:04.116Z,1034.14
2017-02-13T09:01:14.521Z,1034.14
2017-02-13T09:02:24.894Z,1034.12
2017-02-13T09:03:34.456Z,1034.14
2017-02-13T09:04:44.839Z,1034.18
2017-02-13T09:05:55.192Z,1034.16
2017-02-13T09:07:05.536Z,1034.17
2017-02-13T09:08:15.100Z,1034.15
2017-02-13T09:09:25.304Z,1034.14
2017-02-13T09:10:35.679Z,1034.15
2017-02-13T09:11:46.444Z,1034.11
2017-02-13T09:12:56.785Z,1034.11
2017-02-13T09:14:07.788Z,1034.13
2017-02-13T09:15:18.108Z,1034.19
2017-02-13T09:16:27.256Z,1034.17
2017-02-13T09:17:38.000Z,1034.14
2017-02-13T09:18:48.746Z,1034.08
2017-02-13T09:19:58.965Z,1034.13
2017-02-13T09:21:09.726Z,1034.1
2017-02-13T09:22:18.894Z,1034.12
2017-02-13T09:23:29.209Z,1034.06
2017-02-13T09:24:39.532Z,1034.06
2017-02-13T09:25:49.705Z,1034.05
2017-02-13T09:27:00.444Z,1034.04
2017-02-13T09:28:11.154Z,1033.98
2017-02-13T09:29:21.470Z,1034.04
2017-02-13T09:30:31.397Z,1034.04
2017-02-13T09:31:41.231Z,1034.04
2017-02-13T09:32:51.152Z,1034.01
2017-02-13T09:34:00.709Z,1034.01
2017-02-13T09:35:11.030Z,1034
2017-02-13T09:36:20.578Z,1034.02
2017-02-13T09:37:31.543Z,1034.06
2017-02-13T09:38:41.464Z,1034.07
2017-02-13T09:39:52.189Z,1034.11
2017-02-13T09:41:02.145Z,1034.13
2017-02-13T09:42:11.668Z,1034.1
2017-02-13T09:43:21.861Z,1034.15
2017-02-13T09:44:32.601Z,1034.16
2017-02-13T09:45:42.946Z,1034.2
2017-02-13T09:46:53.291Z,1034.24
2017-02-13T09:48:03.642Z,1034.21
2017-02-13T09:49:14.651Z,1034.25
2017-02-13T09:50:24.975Z,1034.22
2017-02-13T09:51:35.300Z,1034.22
2017-02-13T09:52:45.631Z,1034.29
2017-02-13T09:53:55.966Z,1034.25
2017-02-13T09:55:06.988Z,1034.32
2017-02-13T09:56:17.719Z,1034.31
2017-02-13T09:57:28.054Z,1034.29
2017-02-13T09:58:38.056Z,1034.3
2017-02-13T09:59:48.422Z,1034.34
2017-02-13T10:00:59.018Z,1034.31
2017-02-13T10:02:09.884Z,1034.33
2017-02-13T10:03:20.016Z,1034.34
2017-02-13T10:04:30.360Z,1034.3
2017-02-13T10:05:40.690Z,1034.28
2017-02-13T10:06:50.877Z,1034.26
2017-02-13T10:08:01.491Z,1034.21
2017-02-13T10:09:12.110Z,1034.13
2017-02-13T10:10:22.044Z,1034.15
2017-02-13T10:11:32.395Z,1034.13
2017-02-13T10:12:43.375Z,1034.14
2017-02-13T10:13:54.090Z,1034.12
2017-02-13T10:15:04.042Z,1034.11
2017-02-13T10:16:14.398Z,1034.11
2017-02-13T10:17:25.122Z,1034.09
2017-02-13T10:18:35.297Z,1034.1
2017-02-13T10:19:44.853Z,1034.04
2017-02-13T10:20:54.422Z,1034.04
2017-02-13T10:22:04.756Z,1034.01
2017-02-13T10:23:15.075Z,1034.06
2017-02-13T10:24:25.795Z,1034.05
2017-02-13T10:25:36.535Z,1034.02
2017-02-13T10:26:46.860Z,1034.04
2017-02-13T10:27:55.612Z,1034
2017-02-13T10:29:05.602Z,1034.02
2017-02-13T10:30:15.815Z,1033.97
2017-02-13T10:31:26.551Z,1034.01
2017-02-13T10:32:36.877Z,1033.99
2017-02-13T10:33:47.896Z,1033.92
2017-02-13T10:34:57.481Z,1033.97
2017-02-13T10:36:07.280Z,1033.91
2017-02-13T10:37:17.617Z,1033.89
2017-02-13T10:38:27.202Z,1033.9
2017-02-13T10:39:37.950Z,1033.9
2017-02-13T10:40:48.319Z,1033.92
2017-02-13T10:41:58.118Z,1033.9
2017-02-13T10:43:08.050Z,1033.92
2017-02-13T10:44:17.996Z,1033.88
2017-02-13T10:45:28.715Z,1033.87
2017-02-13T10:46:39.040Z,1033.89
2017-02-13T10:47:50.046Z,1033.9
2017-02-13T10:49:00.390Z,1033.94
2017-02-13T10:50:10.717Z,1033.93
2017-02-13T10:51:20.694Z,1033.96
2017-02-13T10:52:31.459Z,1033.9
2017-02-13T10:53:42.477Z,1033.94
2017-02-13T10:54:53.204Z,1033.85
2017-02-13T10:56:03.574Z,1033.9
2017-02-13T10:57:13.903Z,1033.86
2017-02-13T10:58:24.637Z,1033.85
2017-02-13T10:59:34.910Z,1033.88
2017-02-13T11:00:45.247Z,1033.86
2017-02-13T11:01:55.590Z,1033.85
2017-02-13T11:03:05.914Z,1033.81
2017-02-13T11:04:15.845Z,1033.77
2017-02-13T11:05:26.876Z,1033.74
2017-02-13T11:06:36.838Z,1033.78
2017-02-13T11:07:47.185Z,1033.72
2017-02-13T11:08:57.896Z,1033.74
2017-02-13T11:10:08.241Z,1033.7
2017-02-13T11:11:18.817Z,1033.69
2017-02-13T11:12:29.556Z,1033.67
2017-02-13T11:13:40.273Z,1033.66
2017-02-13T11:14:50.206Z,1033.64
2017-02-13T11:16:00.540Z,1033.6
2017-02-13T11:17:11.512Z,1033.55
2017-02-13T11:18:21.862Z,1033.54
2017-02-13T11:19:31.805Z,1033.56
2017-02-13T11:20:41.357Z,1033.55
2017-02-13T11:21:51.677Z,1033.48
2017-02-13T11:23:01.928Z,1033.47
2017-02-13T11:24:12.649Z,1033.41
2017-02-13T11:25:23.012Z,1033.4
2017-02-13T11:26:33.748Z,1033.36
2017-02-13T11:27:44.079Z,1033.35
2017-02-13T11:28:54.272Z,1033.33
2017-02-13T11:30:04.589Z,1033.32
2017-02-13T11:31:15.319Z,1033.32
2017-02-13T11:32:26.045Z,1033.25
2017-02-13T11:33:36.789Z,1033.28
2017-02-13T11:34:47.046Z,1033.26
2017-02-13T11:35:57.368Z,1033.26
2017-02-13T11:37:08.100Z,1033.23
2017-02-13T11:38:18.137Z,1033.28
2017-02-13T11:39:28.855Z,1033.28
2017-02-13T11:40:39.467Z,1033.27
2017-02-13T11:41:50.184Z,1033.26
2017-02-13T11:43:00.924Z,1033.24
2017-02-13T11:44:11.265Z,1033.2
2017-02-13T11:45:21.962Z,1033.17
2017-02-13T11:46:32.553Z,1033.19
2017-02-13T11:47:43.271Z,1033.19
2017-02-13T11:48:53.998Z,1033.19
2017-02-13T11:50:04.323Z,1033.15
2017-02-13T11:51:14.259Z,1033.13
2017-02-13T11:52:25.261Z,1033.12
2017-02-13T11:53:35.596Z,1033.1
2017-02-13T11:54:45.980Z,1033.07
2017-02-13T11:55:55.920Z,1033.09
2017-02-13T11:57:06.656Z,1033.07
2017-02-13T11:58:17.378Z,1033.05
2017-02-13T11:59:27.741Z,1033.06
2017-02-13T12:00:38.466Z,1033
2017-02-13T12:01:48.800Z,1033.03
2017-02-13T12:02:59.131Z,1033.01
2017-02-13T12:04:09.770Z,1032.99
2017-02-13T12:05:20.131Z,1033
2017-02-13T12:06:30.465Z,1032.95
2017-02-13T12:07:40.819Z,1032.98
2017-02-13T12:08:50.747Z,1032.95
2017-02-13T12:10:01.362Z,1032.95
2017-02-13T12:11:11.683Z,1032.93
2017-02-13T12:12:22.417Z,1032.91
2017-02-13T12:13:32.771Z,1032.89
2017-02-13T12:14:42.703Z,1032.89
2017-02-13T12:15:53.328Z,1032.94
2017-02-13T12:17:03.293Z,1032.91
2017-02-13T12:18:13.244Z,1032.89
2017-02-13T12:19:23.587Z,1032.93
2017-02-13T12:20:33.909Z,1032.93
2017-02-13T12:21:44.150Z,1032.9
2017-02-13T12:22:54.084Z,1032.87
2017-02-13T12:24:04.412Z,1032.85
2017-02-13T12:25:14.785Z,1032.77
2017-02-13T12:26:25.506Z,1032.7
2017-02-13T12:27:36.105Z,1032.62
2017-02-13T12:28:46.028Z,1032.61
2017-02-13T12:29:56.414Z,1032.64
2017-02-13T12:31:06.353Z,1032.66
2017-02-13T12:32:16.669Z,1032.65
2017-02-13T12:33:26.872Z,1032.68
2017-02-13T12:34:36.802Z,1032.65
2017-02-13T12:35:46.382Z,1032.65
2017-02-13T12:36:56.747Z,1032.57
2017-02-13T12:38:07.463Z,1032.56
2017-02-13T12:39:18.066Z,1032.6
2017-02-13T12:40:27.996Z,1032.59
2017-02-13T12:41:38.317Z,1032.57
2017-02-13T12:42:48.244Z,1032.52
2017-02-13T12:45:31.412Z,1032.51
2017-02-13T12:46:42.383Z,1032.52
2017-02-13T12:47:52.337Z,1032.46
2017-02-13T12:49:02.279Z,1032.46
2017-02-13T12:50:12.870Z,1032.49
2017-02-13T12:51:23.050Z,1032.49
2017-02-13T12:52:33.406Z,1032.44
2017-02-13T12:53:43.350Z,1032.45
2017-02-13T12:54:52.899Z,1032.4
2017-02-13T12:56:03.220Z,1032.39
2017-02-13T12:57:14.225Z,1032.39
2017-02-13T12:58:24.552Z,1032.38
2017-02-13T12:59:34.116Z,1032.35
2017-02-13T13:00:44.842Z,1032.34
2017-02-13T13:01:55.576Z,1032.35
2017-02-13T13:03:05.814Z,1032.38
2017-02-13T13:04:15.755Z,1032.4
2017-02-13T13:05:24.955Z,1032.38
2017-02-13T13:06:35.287Z,1032.4
2017-02-13T13:07:45.610Z,1032.36
2017-02-13T13:08:56.201Z,1032.35
2017-02-13T13:10:06.510Z,1032.39
2017-02-13T13:11:16.881Z,1032.42
2017-02-13T13:12:26.813Z,1032.41
2017-02-13T13:13:36.352Z,1032.41
2017-02-13T13:14:46.531Z,1032.42
2017-02-13T13:15:55.693Z,1032.41
2017-02-13T13:17:06.415Z,1032.44
2017-02-13T13:18:16.736Z,1032.41
2017-02-13T13:19:27.084Z,1032.36
2017-02-13T13:20:38.120Z,1032.45
2017-02-13T13:21:48.845Z,1032.42
2017-02-13T13:22:59.168Z,1032.43
2017-02-13T13:24:09.505Z,1032.43
2017-02-13T13:25:20.217Z,1032.4
2017-02-13T13:26:31.183Z,1032.45
2017-02-13T13:27:41.104Z,1032.44
2017-02-13T13:28:50.674Z,1032.45
2017-02-13T13:30:01.412Z,1032.48
2017-02-13T13:31:11.340Z,1032.46
2017-02-13T13:32:21.586Z,1032.48
2017-02-13T13:33:32.848Z,1032.46
2017-02-13T13:34:42.791Z,1032.54
2017-02-13T13:35:53.504Z,1032.61
2017-02-13T13:37:04.250Z,1032.58
2017-02-13T13:38:14.817Z,1032.58
2017-02-13T13:39:25.152Z,1032.63
2017-02-13T13:40:35.561Z,1032.62
2017-02-13T13:41:45.925Z,1032.66
2017-02-13T13:42:56.251Z,1032.67
2017-02-13T13:44:06.582Z,1032.73
2017-02-13T13:45:16.498Z,1032.72
2017-02-13T13:46:26.046Z,1032.73
2017-02-13T13:47:36.393Z,1032.75
2017-02-13T13:48:46.570Z,1032.7
2017-02-13T13:49:56.515Z,1032.73
2017-02-13T13:51:06.870Z,1032.72
2017-02-13T13:52:17.603Z,1032.67
2017-02-13T13:53:28.370Z,1032.67
2017-02-13T13:54:39.334Z,1032.67
2017-02-13T13:55:49.270Z,1032.71
2017-02-13T13:56:59.243Z,1032.68
2017-02-13T13:58:09.181Z,1032.69
2017-02-13T13:59:18.710Z,1032.67
2017-02-13T14:00:28.916Z,1032.65
2017-02-13T14:01:38.116Z,1032.62
2017-02-13T14:02:48.470Z,1032.6
2017-02-13T14:03:58.008Z,1032.59
2017-02-13T14:05:08.416Z,1032.55
2017-02-13T14:06:19.449Z,1032.6
2017-02-13T14:07:28.978Z,1032.58
2017-02-13T14:08:38.897Z,1032.59
2017-02-13T14:09:49.644Z,1032.6
2017-02-13T14:11:00.365Z,1032.57
2017-02-13T14:12:10.589Z,1032.55
2017-02-13T14:13:20.909Z,1032.55
2017-02-13T14:14:31.223Z,1032.53